sensor_id;sensor_type;location;lat;lon;timestamp;P1;durP1;ratioP1;P2;durP2;ratioP2
66633;SDS011;53546;52.184;5.596;2023-02-04T00:00:39;6.90;;;2.30;;
66633;SDS011;53546;52.184;5.596;2023-02-04T00:03:05;10.68;;;2.90;;
66633;SDS011;53546;52.184;5.596;2023-02-04T00:05:30;9.07;;;2.50;;
66633;SDS011;53546;52.184;5.596;2023-02-04T00:07:56;6.75;;;2.45;;
66633;SDS011;53546;52.184;5.596;2023-02-04T00:10:21;7.28;;;2.50;;
66633;SDS011;53546;52.184;5.596;2023-02-04T00:12:47;6.53;;;2.55;;
66633;SDS011;53546;52.184;5.596;2023-02-04T00:15:12;7.03;;;2.65;;
66633;SDS011;53546;52.184;5.596;2023-02-04T00:17:38;6.57;;;2.38;;
66633;SDS011;53546;52.184;5.596;2023-02-04T00:20:03;9.48;;;1.95;;
66633;SDS011;53546;52.184;5.596;2023-02-04T00:22:29;6.97;;;2.33;;
66633;SDS011;53546;52.184;5.596;2023-02-04T00:24:55;4.65;;;2.00;;
66633;SDS011;53546;52.184;5.596;2023-02-04T00:27:20;7.15;;;2.08;;
66633;SDS011;53546;52.184;5.596;2023-02-04T00:29:46;8.52;;;2.30;;
66633;SDS011;53546;52.184;5.596;2023-02-04T00:32:11;5.43;;;2.40;;
66633;SDS011;53546;52.184;5.596;2023-02-04T00:34:37;5.15;;;1.90;;
66633;SDS011;53546;52.184;5.596;2023-02-04T00:37:02;6.38;;;2.22;;
66633;SDS011;53546;52.184;5.596;2023-02-04T00:39:27;7.13;;;2.53;;
66633;SDS011;53546;52.184;5.596;2023-02-04T00:41:53;7.95;;;2.08;;
66633;SDS011;53546;52.184;5.596;2023-02-04T00:44:18;4.97;;;2.17;;
66633;SDS011;53546;52.184;5.596;2023-02-04T00:46:44;8.15;;;2.33;;
66633;SDS011;53546;52.184;5.596;2023-02-04T00:49:09;6.72;;;2.67;;
66633;SDS011;53546;52.184;5.596;2023-02-04T00:51:38;6.28;;;2.63;;
66633;SDS011;53546;52.184;5.596;2023-02-04T00:54:05;7.15;;;2.20;;
66633;SDS011;53546;52.184;5.596;2023-02-04T00:56:31;7.40;;;2.70;;
66633;SDS011;53546;52.184;5.596;2023-02-04T00:58:57;6.43;;;2.53;;
66633;SDS011;53546;52.184;5.596;2023-02-04T01:01:22;8.88;;;2.67;;
66633;SDS011;53546;52.184;5.596;2023-02-04T01:03:48;7.53;;;2.70;;
66633;SDS011;53546;52.184;5.596;2023-02-04T01:06:13;6.88;;;2.28;;
66633;SDS011;53546;52.184;5.596;2023-02-04T01:08:38;6.10;;;2.25;;
66633;SDS011;53546;52.184;5.596;2023-02-04T01:11:04;5.25;;;2.25;;
66633;SDS011;53546;52.184;5.596;2023-02-04T01:13:29;6.75;;;2.72;;
66633;SDS011;53546;52.184;5.596;2023-02-04T01:15:55;6.78;;;2.00;;
66633;SDS011;53546;52.184;5.596;2023-02-04T01:18:20;8.98;;;2.90;;
66633;SDS011;53546;52.184;5.596;2023-02-04T01:20:45;6.32;;;2.55;;
66633;SDS011;53546;52.184;5.596;2023-02-04T01:23:11;5.53;;;2.67;;
66633;SDS011;53546;52.184;5.596;2023-02-04T01:25:36;7.20;;;2.25;;
66633;SDS011;53546;52.184;5.596;2023-02-04T01:28:02;6.57;;;2.08;;
66633;SDS011;53546;52.184;5.596;2023-02-04T01:30:27;8.73;;;2.80;;
66633;SDS011;53546;52.184;5.596;2023-02-04T01:32:53;6.07;;;2.22;;
66633;SDS011;53546;52.184;5.596;2023-02-04T01:35:18;5.78;;;2.38;;
66633;SDS011;53546;52.184;5.596;2023-02-04T01:37:43;6.40;;;2.33;;
66633;SDS011;53546;52.184;5.596;2023-02-04T01:40:09;6.63;;;2.88;;
66633;SDS011;53546;52.184;5.596;2023-02-04T01:42:35;6.07;;;2.42;;
66633;SDS011;53546;52.184;5.596;2023-02-04T01:45:01;9.93;;;2.67;;
66633;SDS011;53546;52.184;5.596;2023-02-04T01:47:30;6.63;;;2.30;;
66633;SDS011;53546;52.184;5.596;2023-02-04T01:49:56;6.13;;;2.40;;
66633;SDS011;53546;52.184;5.596;2023-02-04T01:52:21;6.53;;;2.20;;
66633;SDS011;53546;52.184;5.596;2023-02-04T01:54:47;6.60;;;2.40;;
66633;SDS011;53546;52.184;5.596;2023-02-04T01:57:13;8.60;;;2.90;;
66633;SDS011;53546;52.184;5.596;2023-02-04T01:59:43;8.25;;;2.30;;
66633;SDS011;53546;52.184;5.596;2023-02-04T02:02:35;6.18;;;1.90;;
66633;SDS011;53546;52.184;5.596;2023-02-04T02:05:05;6.05;;;2.10;;
66633;SDS011;53546;52.184;5.596;2023-02-04T02:07:31;5.00;;;2.22;;
66633;SDS011;53546;52.184;5.596;2023-02-04T02:09:56;4.90;;;2.00;;
66633;SDS011;53546;52.184;5.596;2023-02-04T02:12:22;6.22;;;2.58;;
66633;SDS011;53546;52.184;5.596;2023-02-04T02:14:47;7.18;;;2.30;;
66633;SDS011;53546;52.184;5.596;2023-02-04T02:17:12;9.50;;;2.65;;
66633;SDS011;53546;52.184;5.596;2023-02-04T02:19:38;7.75;;;2.13;;
66633;SDS011;53546;52.184;5.596;2023-02-04T02:22:04;11.68;;;2.70;;
66633;SDS011;53546;52.184;5.596;2023-02-04T02:24:35;8.95;;;2.30;;
66633;SDS011;53546;52.184;5.596;2023-02-04T02:27:04;8.85;;;2.25;;
66633;SDS011;53546;52.184;5.596;2023-02-04T02:29:32;6.82;;;2.00;;
66633;SDS011;53546;52.184;5.596;2023-02-04T02:31:58;5.63;;;2.13;;
66633;SDS011;53546;52.184;5.596;2023-02-04T02:34:27;7.57;;;2.05;;
66633;SDS011;53546;52.184;5.596;2023-02-04T02:36:54;7.45;;;2.20;;
66633;SDS011;53546;52.184;5.596;2023-02-04T02:39:20;6.97;;;2.35;;
66633;SDS011;53546;52.184;5.596;2023-02-04T02:41:45;7.43;;;2.40;;
66633;SDS011;53546;52.184;5.596;2023-02-04T02:44:11;7.57;;;2.25;;
66633;SDS011;53546;52.184;5.596;2023-02-04T02:46:38;6.22;;;2.40;;
66633;SDS011;53546;52.184;5.596;2023-02-04T02:49:03;7.30;;;2.47;;
66633;SDS011;53546;52.184;5.596;2023-02-04T02:51:28;5.35;;;1.98;;
66633;SDS011;53546;52.184;5.596;2023-02-04T02:53:55;6.03;;;2.15;;
66633;SDS011;53546;52.184;5.596;2023-02-04T02:56:20;6.90;;;2.50;;
66633;SDS011;53546;52.184;5.596;2023-02-04T02:58:46;7.35;;;2.15;;
66633;SDS011;53546;52.184;5.596;2023-02-04T03:01:11;8.07;;;2.13;;
66633;SDS011;53546;52.184;5.596;2023-02-04T03:03:49;7.97;;;2.00;;
66633;SDS011;53546;52.184;5.596;2023-02-04T03:06:16;6.35;;;2.50;;
66633;SDS011;53546;52.184;5.596;2023-02-04T03:08:44;5.70;;;1.88;;
66633;SDS011;53546;52.184;5.596;2023-02-04T03:11:10;7.57;;;2.22;;
66633;SDS011;53546;52.184;5.596;2023-02-04T03:13:36;6.32;;;2.10;;
66633;SDS011;53546;52.184;5.596;2023-02-04T03:16:02;4.22;;;2.17;;
66633;SDS011;53546;52.184;5.596;2023-02-04T03:18:28;4.88;;;2.00;;
66633;SDS011;53546;52.184;5.596;2023-02-04T03:20:55;6.10;;;2.35;;
66633;SDS011;53546;52.184;5.596;2023-02-04T03:23:20;9.02;;;2.55;;
66633;SDS011;53546;52.184;5.596;2023-02-04T03:25:46;8.15;;;2.20;;
66633;SDS011;53546;52.184;5.596;2023-02-04T03:28:11;5.55;;;2.40;;
66633;SDS011;53546;52.184;5.596;2023-02-04T03:30:37;5.07;;;2.00;;
66633;SDS011;53546;52.184;5.596;2023-02-04T03:33:02;7.07;;;2.15;;
66633;SDS011;53546;52.184;5.596;2023-02-04T03:35:28;6.22;;;2.13;;
66633;SDS011;53546;52.184;5.596;2023-02-04T03:37:53;7.13;;;2.40;;
66633;SDS011;53546;52.184;5.596;2023-02-04T03:40:19;6.80;;;2.28;;
66633;SDS011;53546;52.184;5.596;2023-02-04T03:42:44;10.70;;;3.15;;
66633;SDS011;53546;52.184;5.596;2023-02-04T03:45:09;8.68;;;2.47;;
66633;SDS011;53546;52.184;5.596;2023-02-04T03:47:35;6.63;;;2.13;;
66633;SDS011;53546;52.184;5.596;2023-02-04T03:50:00;5.20;;;2.40;;
66633;SDS011;53546;52.184;5.596;2023-02-04T03:52:26;7.13;;;2.45;;
66633;SDS011;53546;52.184;5.596;2023-02-04T03:54:51;8.07;;;2.60;;
66633;SDS011;53546;52.184;5.596;2023-02-04T03:57:16;7.57;;;2.40;;
66633;SDS011;53546;52.184;5.596;2023-02-04T03:59:42;7.93;;;2.30;;
66633;SDS011;53546;52.184;5.596;2023-02-04T04:02:07;8.27;;;2.50;;
66633;SDS011;53546;52.184;5.596;2023-02-04T04:04:33;7.28;;;2.15;;
66633;SDS011;53546;52.184;5.596;2023-02-04T04:06:59;7.65;;;2.05;;
66633;SDS011;53546;52.184;5.596;2023-02-04T04:09:24;5.22;;;2.20;;
66633;SDS011;53546;52.184;5.596;2023-02-04T04:11:49;6.82;;;2.50;;
66633;SDS011;53546;52.184;5.596;2023-02-04T04:14:15;7.85;;;2.22;;
66633;SDS011;53546;52.184;5.596;2023-02-04T04:16:40;6.38;;;2.35;;
66633;SDS011;53546;52.184;5.596;2023-02-04T04:19:06;7.13;;;2.35;;
66633;SDS011;53546;52.184;5.596;2023-02-04T04:21:31;5.93;;;2.25;;
66633;SDS011;53546;52.184;5.596;2023-02-04T04:23:56;8.75;;;2.70;;
66633;SDS011;53546;52.184;5.596;2023-02-04T04:26:22;7.80;;;2.33;;
66633;SDS011;53546;52.184;5.596;2023-02-04T04:28:47;6.20;;;2.28;;
66633;SDS011;53546;52.184;5.596;2023-02-04T04:31:13;9.25;;;2.42;;
66633;SDS011;53546;52.184;5.596;2023-02-04T04:33:38;6.45;;;2.53;;
66633;SDS011;53546;52.184;5.596;2023-02-04T04:36:04;5.43;;;2.40;;
66633;SDS011;53546;52.184;5.596;2023-02-04T04:38:30;9.10;;;2.22;;
66633;SDS011;53546;52.184;5.596;2023-02-04T04:40:55;8.13;;;2.25;;
66633;SDS011;53546;52.184;5.596;2023-02-04T04:43:20;5.22;;;2.40;;
66633;SDS011;53546;52.184;5.596;2023-02-04T04:45:46;4.88;;;2.13;;
66633;SDS011;53546;52.184;5.596;2023-02-04T04:48:11;6.97;;;2.47;;
66633;SDS011;53546;52.184;5.596;2023-02-04T04:50:37;4.68;;;2.00;;
66633;SDS011;53546;52.184;5.596;2023-02-04T04:53:02;7.68;;;2.20;;
66633;SDS011;53546;52.184;5.596;2023-02-04T04:55:28;4.50;;;2.03;;
66633;SDS011;53546;52.184;5.596;2023-02-04T04:57:53;7.35;;;2.45;;
66633;SDS011;53546;52.184;5.596;2023-02-04T05:00:19;6.40;;;2.28;;
66633;SDS011;53546;52.184;5.596;2023-02-04T05:02:45;5.90;;;2.20;;
66633;SDS011;53546;52.184;5.596;2023-02-04T05:05:10;5.57;;;2.03;;
66633;SDS011;53546;52.184;5.596;2023-02-04T05:07:37;6.43;;;2.17;;
66633;SDS011;53546;52.184;5.596;2023-02-04T05:10:03;6.95;;;2.22;;
66633;SDS011;53546;52.184;5.596;2023-02-04T05:12:29;9.35;;;2.63;;
66633;SDS011;53546;52.184;5.596;2023-02-04T05:14:54;5.95;;;2.17;;
66633;SDS011;53546;52.184;5.596;2023-02-04T05:17:20;8.55;;;2.50;;
66633;SDS011;53546;52.184;5.596;2023-02-04T05:19:45;8.30;;;2.58;;
66633;SDS011;53546;52.184;5.596;2023-02-04T05:22:10;5.88;;;2.40;;
66633;SDS011;53546;52.184;5.596;2023-02-04T05:24:36;4.68;;;2.00;;
66633;SDS011;53546;52.184;5.596;2023-02-04T05:27:01;6.97;;;2.13;;
66633;SDS011;53546;52.184;5.596;2023-02-04T05:29:27;6.88;;;1.98;;
66633;SDS011;53546;52.184;5.596;2023-02-04T05:31:52;7.53;;;2.10;;
66633;SDS011;53546;52.184;5.596;2023-02-04T05:34:17;3.53;;;1.77;;
66633;SDS011;53546;52.184;5.596;2023-02-04T05:36:43;5.22;;;2.08;;
66633;SDS011;53546;52.184;5.596;2023-02-04T05:39:08;5.22;;;2.20;;
66633;SDS011;53546;52.184;5.596;2023-02-04T05:41:33;6.57;;;2.25;;
66633;SDS011;53546;52.184;5.596;2023-02-04T05:43:59;4.53;;;1.77;;
66633;SDS011;53546;52.184;5.596;2023-02-04T05:46:24;5.53;;;2.25;;
66633;SDS011;53546;52.184;5.596;2023-02-04T05:48:50;10.02;;;2.47;;
66633;SDS011;53546;52.184;5.596;2023-02-04T05:51:15;5.55;;;2.22;;
66633;SDS011;53546;52.184;5.596;2023-02-04T05:53:40;7.25;;;2.65;;
66633;SDS011;53546;52.184;5.596;2023-02-04T05:56:06;6.88;;;2.10;;
66633;SDS011;53546;52.184;5.596;2023-02-04T05:58:31;9.77;;;2.42;;
66633;SDS011;53546;52.184;5.596;2023-02-04T06:00:59;8.27;;;2.10;;
66633;SDS011;53546;52.184;5.596;2023-02-04T06:03:25;5.53;;;2.20;;
66633;SDS011;53546;52.184;5.596;2023-02-04T06:05:51;9.27;;;2.08;;
66633;SDS011;53546;52.184;5.596;2023-02-04T06:08:17;5.82;;;2.10;;
66633;SDS011;53546;52.184;5.596;2023-02-04T06:10:42;5.78;;;2.30;;
66633;SDS011;53546;52.184;5.596;2023-02-04T06:13:07;6.55;;;2.28;;
66633;SDS011;53546;52.184;5.596;2023-02-04T06:15:33;5.70;;;2.50;;
66633;SDS011;53546;52.184;5.596;2023-02-04T06:17:58;10.52;;;2.47;;
66633;SDS011;53546;52.184;5.596;2023-02-04T06:20:24;10.00;;;2.47;;
66633;SDS011;53546;52.184;5.596;2023-02-04T06:22:49;8.48;;;2.05;;
66633;SDS011;53546;52.184;5.596;2023-02-04T06:25:18;8.25;;;2.90;;
66633;SDS011;53546;52.184;5.596;2023-02-04T06:27:44;7.68;;;2.53;;
66633;SDS011;53546;52.184;5.596;2023-02-04T06:30:10;6.28;;;2.65;;
66633;SDS011;53546;52.184;5.596;2023-02-04T06:32:36;4.93;;;2.08;;
66633;SDS011;53546;52.184;5.596;2023-02-04T06:35:01;6.85;;;2.60;;
66633;SDS011;53546;52.184;5.596;2023-02-04T06:37:26;6.47;;;2.60;;
66633;SDS011;53546;52.184;5.596;2023-02-04T06:39:52;13.68;;;2.40;;
66633;SDS011;53546;52.184;5.596;2023-02-04T06:42:19;5.90;;;1.90;;
66633;SDS011;53546;52.184;5.596;2023-02-04T06:44:44;6.15;;;2.20;;
66633;SDS011;53546;52.184;5.596;2023-02-04T06:47:10;8.07;;;2.33;;
66633;SDS011;53546;52.184;5.596;2023-02-04T06:49:36;5.05;;;2.03;;
66633;SDS011;53546;52.184;5.596;2023-02-04T06:52:01;4.85;;;2.22;;
66633;SDS011;53546;52.184;5.596;2023-02-04T06:54:26;5.70;;;2.08;;
66633;SDS011;53546;52.184;5.596;2023-02-04T06:56:52;5.82;;;2.38;;
66633;SDS011;53546;52.184;5.596;2023-02-04T06:59:17;5.90;;;2.03;;
66633;SDS011;53546;52.184;5.596;2023-02-04T07:01:42;6.47;;;2.40;;
66633;SDS011;53546;52.184;5.596;2023-02-04T07:04:08;11.32;;;2.50;;
66633;SDS011;53546;52.184;5.596;2023-02-04T07:06:33;6.25;;;2.00;;
66633;SDS011;53546;52.184;5.596;2023-02-04T07:08:59;11.75;;;2.55;;
66633;SDS011;53546;52.184;5.596;2023-02-04T07:11:24;24.70;;;2.63;;
66633;SDS011;53546;52.184;5.596;2023-02-04T07:13:49;7.72;;;2.35;;
66633;SDS011;53546;52.184;5.596;2023-02-04T07:16:15;5.95;;;2.13;;
66633;SDS011;53546;52.184;5.596;2023-02-04T07:18:40;6.15;;;2.13;;
66633;SDS011;53546;52.184;5.596;2023-02-04T07:21:06;6.68;;;2.33;;
66633;SDS011;53546;52.184;5.596;2023-02-04T07:23:31;7.47;;;2.50;;
66633;SDS011;53546;52.184;5.596;2023-02-04T07:25:56;6.47;;;2.53;;
66633;SDS011;53546;52.184;5.596;2023-02-04T07:28:23;6.25;;;2.45;;
66633;SDS011;53546;52.184;5.596;2023-02-04T07:30:49;7.05;;;2.30;;
66633;SDS011;53546;52.184;5.596;2023-02-04T07:33:14;10.13;;;2.15;;
66633;SDS011;53546;52.184;5.596;2023-02-04T07:35:40;7.93;;;2.45;;
66633;SDS011;53546;52.184;5.596;2023-02-04T07:38:05;7.95;;;2.60;;
66633;SDS011;53546;52.184;5.596;2023-02-04T07:40:31;8.05;;;2.47;;
66633;SDS011;53546;52.184;5.596;2023-02-04T07:42:56;7.90;;;2.40;;
66633;SDS011;53546;52.184;5.596;2023-02-04T07:45:21;6.90;;;2.50;;
66633;SDS011;53546;52.184;5.596;2023-02-04T07:47:47;6.03;;;2.38;;
66633;SDS011;53546;52.184;5.596;2023-02-04T07:50:12;13.30;;;2.75;;
66633;SDS011;53546;52.184;5.596;2023-02-04T07:52:38;8.63;;;2.20;;
66633;SDS011;53546;52.184;5.596;2023-02-04T07:55:04;7.78;;;2.70;;
66633;SDS011;53546;52.184;5.596;2023-02-04T07:57:30;7.97;;;2.20;;
66633;SDS011;53546;52.184;5.596;2023-02-04T07:59:55;5.53;;;2.10;;
66633;SDS011;53546;52.184;5.596;2023-02-04T08:02:20;10.50;;;2.50;;
66633;SDS011;53546;52.184;5.596;2023-02-04T08:04:46;5.70;;;2.33;;
66633;SDS011;53546;52.184;5.596;2023-02-04T08:07:11;6.85;;;2.38;;
66633;SDS011;53546;52.184;5.596;2023-02-04T08:09:37;6.82;;;2.33;;
66633;SDS011;53546;52.184;5.596;2023-02-04T08:12:02;10.38;;;2.30;;
66633;SDS011;53546;52.184;5.596;2023-02-04T08:14:28;6.00;;;2.33;;
66633;SDS011;53546;52.184;5.596;2023-02-04T08:16:53;9.57;;;3.10;;
66633;SDS011;53546;52.184;5.596;2023-02-04T08:19:18;14.23;;;2.45;;
66633;SDS011;53546;52.184;5.596;2023-02-04T08:21:45;8.85;;;2.58;;
66633;SDS011;53546;52.184;5.596;2023-02-04T08:24:11;4.07;;;1.98;;
66633;SDS011;53546;52.184;5.596;2023-02-04T08:26:37;8.32;;;2.53;;
66633;SDS011;53546;52.184;5.596;2023-02-04T08:29:03;9.95;;;2.80;;
66633;SDS011;53546;52.184;5.596;2023-02-04T08:31:29;8.43;;;2.60;;
66633;SDS011;53546;52.184;5.596;2023-02-04T08:33:54;8.70;;;2.17;;
66633;SDS011;53546;52.184;5.596;2023-02-04T08:36:19;6.60;;;2.38;;
66633;SDS011;53546;52.184;5.596;2023-02-04T08:38:45;6.43;;;2.60;;
66633;SDS011;53546;52.184;5.596;2023-02-04T08:41:10;8.30;;;2.60;;
66633;SDS011;53546;52.184;5.596;2023-02-04T08:43:35;7.50;;;2.42;;
66633;SDS011;53546;52.184;5.596;2023-02-04T08:46:01;4.72;;;2.40;;
66633;SDS011;53546;52.184;5.596;2023-02-04T08:48:27;9.90;;;2.30;;
66633;SDS011;53546;52.184;5.596;2023-02-04T08:50:52;11.88;;;2.40;;
66633;SDS011;53546;52.184;5.596;2023-02-04T08:53:17;9.38;;;2.58;;
66633;SDS011;53546;52.184;5.596;2023-02-04T08:55:43;7.95;;;2.50;;
66633;SDS011;53546;52.184;5.596;2023-02-04T08:58:08;6.90;;;2.72;;
66633;SDS011;53546;52.184;5.596;2023-02-04T09:00:34;15.05;;;2.95;;
66633;SDS011;53546;52.184;5.596;2023-02-04T09:02:59;11.02;;;3.20;;
66633;SDS011;53546;52.184;5.596;2023-02-04T09:05:24;10.50;;;3.17;;
66633;SDS011;53546;52.184;5.596;2023-02-04T09:07:50;14.07;;;3.72;;
66633;SDS011;53546;52.184;5.596;2023-02-04T09:10:15;14.65;;;4.03;;
66633;SDS011;53546;52.184;5.596;2023-02-04T09:12:41;20.10;;;4.10;;
66633;SDS011;53546;52.184;5.596;2023-02-04T09:15:08;18.63;;;4.20;;
66633;SDS011;53546;52.184;5.596;2023-02-04T09:17:34;13.68;;;3.47;;
66633;SDS011;53546;52.184;5.596;2023-02-04T09:19:59;17.15;;;4.10;;
66633;SDS011;53546;52.184;5.596;2023-02-04T09:22:25;12.57;;;3.92;;
66633;SDS011;53546;52.184;5.596;2023-02-04T09:24:51;19.98;;;4.00;;
66633;SDS011;53546;52.184;5.596;2023-02-04T09:27:16;12.55;;;3.72;;
66633;SDS011;53546;52.184;5.596;2023-02-04T09:29:41;14.43;;;3.55;;
66633;SDS011;53546;52.184;5.596;2023-02-04T09:32:07;7.63;;;2.75;;
66633;SDS011;53546;52.184;5.596;2023-02-04T09:34:32;9.70;;;3.40;;
66633;SDS011;53546;52.184;5.596;2023-02-04T09:36:58;9.35;;;2.97;;
66633;SDS011;53546;52.184;5.596;2023-02-04T09:39:23;10.10;;;3.17;;
66633;SDS011;53546;52.184;5.596;2023-02-04T09:41:48;11.73;;;3.35;;
66633;SDS011;53546;52.184;5.596;2023-02-04T09:44:16;19.05;;;4.40;;
66633;SDS011;53546;52.184;5.596;2023-02-04T09:46:50;15.52;;;4.20;;
66633;SDS011;53546;52.184;5.596;2023-02-04T09:49:20;13.32;;;4.00;;
66633;SDS011;53546;52.184;5.596;2023-02-04T09:51:45;14.52;;;4.03;;
66633;SDS011;53546;52.184;5.596;2023-02-04T09:54:12;14.10;;;4.25;;
66633;SDS011;53546;52.184;5.596;2023-02-04T09:56:39;14.82;;;4.10;;
66633;SDS011;53546;52.184;5.596;2023-02-04T09:59:09;17.48;;;4.75;;
66633;SDS011;53546;52.184;5.596;2023-02-04T10:01:42;14.00;;;4.32;;
66633;SDS011;53546;52.184;5.596;2023-02-04T10:04:09;20.38;;;4.28;;
66633;SDS011;53546;52.184;5.596;2023-02-04T10:06:36;14.98;;;4.25;;
66633;SDS011;53546;52.184;5.596;2023-02-04T10:09:02;17.17;;;4.20;;
66633;SDS011;53546;52.184;5.596;2023-02-04T10:11:28;15.57;;;4.07;;
66633;SDS011;53546;52.184;5.596;2023-02-04T10:13:57;12.63;;;3.58;;
66633;SDS011;53546;52.184;5.596;2023-02-04T10:16:23;16.70;;;4.35;;
66633;SDS011;53546;52.184;5.596;2023-02-04T10:18:55;14.60;;;4.57;;
66633;SDS011;53546;52.184;5.596;2023-02-04T10:21:28;16.70;;;4.82;;
66633;SDS011;53546;52.184;5.596;2023-02-04T10:23:56;13.85;;;4.47;;
66633;SDS011;53546;52.184;5.596;2023-02-04T10:26:27;14.23;;;4.18;;
66633;SDS011;53546;52.184;5.596;2023-02-04T10:28:58;16.63;;;4.13;;
66633;SDS011;53546;52.184;5.596;2023-02-04T10:36:33;12.15;;;3.40;;
66633;SDS011;53546;52.184;5.596;2023-02-04T10:39:00;10.20;;;3.83;;
66633;SDS011;53546;52.184;5.596;2023-02-04T10:41:29;11.13;;;4.18;;
66633;SDS011;53546;52.184;5.596;2023-02-04T10:44:05;11.25;;;3.95;;
66633;SDS011;53546;52.184;5.596;2023-02-04T10:46:31;13.23;;;4.30;;
66633;SDS011;53546;52.184;5.596;2023-02-04T10:48:57;11.80;;;3.53;;
66633;SDS011;53546;52.184;5.596;2023-02-04T10:51:23;19.85;;;3.50;;
66633;SDS011;53546;52.184;5.596;2023-02-04T10:53:51;11.52;;;3.35;;
66633;SDS011;53546;52.184;5.596;2023-02-04T10:56:35;11.70;;;4.20;;
66633;SDS011;53546;52.184;5.596;2023-02-04T10:59:00;10.90;;;3.90;;
66633;SDS011;53546;52.184;5.596;2023-02-04T11:01:26;12.73;;;4.25;;
66633;SDS011;53546;52.184;5.596;2023-02-04T11:03:52;11.07;;;3.08;;
66633;SDS011;53546;52.184;5.596;2023-02-04T11:06:19;8.85;;;3.30;;
66633;SDS011;53546;52.184;5.596;2023-02-04T11:08:45;11.25;;;3.25;;
66633;SDS011;53546;52.184;5.596;2023-02-04T11:18:43;10.40;;;3.00;;
66633;SDS011;53546;52.184;5.596;2023-02-04T11:31:55;8.30;;;2.72;;
66633;SDS011;53546;52.184;5.596;2023-02-04T11:39:42;8.38;;;2.88;;
66633;SDS011;53546;52.184;5.596;2023-02-04T11:42:20;11.85;;;3.05;;
66633;SDS011;53546;52.184;5.596;2023-02-04T11:44:50;9.85;;;3.20;;
66633;SDS011;53546;52.184;5.596;2023-02-04T11:47:17;10.45;;;3.10;;
66633;SDS011;53546;52.184;5.596;2023-02-04T11:49:42;5.80;;;2.40;;
66633;SDS011;53546;52.184;5.596;2023-02-04T11:52:11;13.80;;;2.95;;
66633;SDS011;53546;52.184;5.596;2023-02-04T11:54:38;9.13;;;2.80;;
66633;SDS011;53546;52.184;5.596;2023-02-04T11:57:04;10.23;;;2.88;;
66633;SDS011;53546;52.184;5.596;2023-02-04T11:59:29;8.38;;;2.70;;
66633;SDS011;53546;52.184;5.596;2023-02-04T12:04:51;10.15;;;2.53;;
66633;SDS011;53546;52.184;5.596;2023-02-04T12:07:33;7.25;;;2.88;;
66633;SDS011;53546;52.184;5.596;2023-02-04T12:10:09;11.23;;;3.17;;
66633;SDS011;53546;52.184;5.596;2023-02-04T12:12:53;9.82;;;3.45;;
66633;SDS011;53546;52.184;5.596;2023-02-04T12:15:31;12.02;;;3.63;;
66633;SDS011;53546;52.184;5.596;2023-02-04T12:18:02;19.38;;;3.85;;
66633;SDS011;53546;52.184;5.596;2023-02-04T12:20:28;14.88;;;3.88;;
66633;SDS011;53546;52.184;5.596;2023-02-04T12:22:55;17.05;;;4.43;;
66633;SDS011;53546;52.184;5.596;2023-02-04T12:25:20;17.40;;;3.75;;
66633;SDS011;53546;52.184;5.596;2023-02-04T12:27:46;17.30;;;4.25;;
66633;SDS011;53546;52.184;5.596;2023-02-04T12:30:11;17.17;;;4.57;;
66633;SDS011;53546;52.184;5.596;2023-02-04T12:32:37;16.17;;;4.03;;
66633;SDS011;53546;52.184;5.596;2023-02-04T12:35:02;15.88;;;4.50;;
66633;SDS011;53546;52.184;5.596;2023-02-04T12:37:28;13.90;;;4.32;;
66633;SDS011;53546;52.184;5.596;2023-02-04T12:39:54;15.45;;;4.03;;
66633;SDS011;53546;52.184;5.596;2023-02-04T12:42:19;10.43;;;3.60;;
66633;SDS011;53546;52.184;5.596;2023-02-04T12:44:44;11.65;;;3.55;;
66633;SDS011;53546;52.184;5.596;2023-02-04T12:47:10;12.77;;;4.10;;
66633;SDS011;53546;52.184;5.596;2023-02-04T12:49:35;10.80;;;3.97;;
66633;SDS011;53546;52.184;5.596;2023-02-04T12:52:02;14.00;;;4.72;;
66633;SDS011;53546;52.184;5.596;2023-02-04T12:54:28;17.95;;;4.65;;
66633;SDS011;53546;52.184;5.596;2023-02-04T12:56:53;15.85;;;4.50;;
66633;SDS011;53546;52.184;5.596;2023-02-04T12:59:22;12.90;;;4.25;;
66633;SDS011;53546;52.184;5.596;2023-02-04T13:01:48;19.80;;;5.05;;
66633;SDS011;53546;52.184;5.596;2023-02-04T13:04:13;23.23;;;4.30;;
66633;SDS011;53546;52.184;5.596;2023-02-04T13:06:39;16.92;;;4.03;;
66633;SDS011;53546;52.184;5.596;2023-02-04T13:09:04;14.60;;;4.68;;
66633;SDS011;53546;52.184;5.596;2023-02-04T13:11:30;15.10;;;4.07;;
66633;SDS011;53546;52.184;5.596;2023-02-04T13:13:55;15.10;;;4.13;;
66633;SDS011;53546;52.184;5.596;2023-02-04T13:16:21;18.60;;;4.35;;
66633;SDS011;53546;52.184;5.596;2023-02-04T13:18:48;20.20;;;4.22;;
66633;SDS011;53546;52.184;5.596;2023-02-04T13:21:14;11.20;;;4.20;;
66633;SDS011;53546;52.184;5.596;2023-02-04T13:23:39;15.65;;;4.03;;
66633;SDS011;53546;52.184;5.596;2023-02-04T13:26:05;12.88;;;4.05;;
66633;SDS011;53546;52.184;5.596;2023-02-04T13:28:31;12.63;;;3.47;;
66633;SDS011;53546;52.184;5.596;2023-02-04T13:30:57;15.77;;;3.95;;
66633;SDS011;53546;52.184;5.596;2023-02-04T13:33:22;13.68;;;3.45;;
66633;SDS011;53546;52.184;5.596;2023-02-04T13:35:48;11.55;;;3.45;;
66633;SDS011;53546;52.184;5.596;2023-02-04T13:38:13;15.48;;;4.05;;
66633;SDS011;53546;52.184;5.596;2023-02-04T13:40:38;8.45;;;2.90;;
66633;SDS011;53546;52.184;5.596;2023-02-04T13:43:04;10.05;;;2.90;;
66633;SDS011;53546;52.184;5.596;2023-02-04T13:45:29;9.00;;;3.13;;
66633;SDS011;53546;52.184;5.596;2023-02-04T13:47:54;11.57;;;3.72;;
66633;SDS011;53546;52.184;5.596;2023-02-04T13:50:20;11.27;;;3.72;;
66633;SDS011;53546;52.184;5.596;2023-02-04T13:52:45;10.65;;;3.15;;
66633;SDS011;53546;52.184;5.596;2023-02-04T13:55:10;8.80;;;3.10;;
66633;SDS011;53546;52.184;5.596;2023-02-04T13:57:36;10.13;;;3.33;;
66633;SDS011;53546;52.184;5.596;2023-02-04T14:00:02;12.30;;;3.75;;
66633;SDS011;53546;52.184;5.596;2023-02-04T14:02:28;7.70;;;2.67;;
66633;SDS011;53546;52.184;5.596;2023-02-04T14:04:54;6.57;;;2.60;;
66633;SDS011;53546;52.184;5.596;2023-02-04T14:07:21;7.53;;;2.55;;
66633;SDS011;53546;52.184;5.596;2023-02-04T14:09:47;8.18;;;2.65;;
66633;SDS011;53546;52.184;5.596;2023-02-04T14:12:12;8.25;;;2.90;;
66633;SDS011;53546;52.184;5.596;2023-02-04T14:14:38;9.88;;;3.05;;
66633;SDS011;53546;52.184;5.596;2023-02-04T14:17:03;7.25;;;2.78;;
66633;SDS011;53546;52.184;5.596;2023-02-04T14:19:29;9.38;;;2.55;;
66633;SDS011;53546;52.184;5.596;2023-02-04T14:21:54;7.60;;;2.58;;
66633;SDS011;53546;52.184;5.596;2023-02-04T14:24:19;5.57;;;2.55;;
66633;SDS011;53546;52.184;5.596;2023-02-04T14:26:45;7.70;;;3.15;;
66633;SDS011;53546;52.184;5.596;2023-02-04T14:29:11;11.30;;;2.42;;
66633;SDS011;53546;52.184;5.596;2023-02-04T14:31:37;4.97;;;2.17;;
66633;SDS011;53546;52.184;5.596;2023-02-04T14:34:02;7.55;;;2.55;;
66633;SDS011;53546;52.184;5.596;2023-02-04T14:36:28;10.25;;;2.78;;
66633;SDS011;53546;52.184;5.596;2023-02-04T14:38:53;5.28;;;2.10;;
66633;SDS011;53546;52.184;5.596;2023-02-04T14:41:18;8.48;;;2.22;;
66633;SDS011;53546;52.184;5.596;2023-02-04T14:43:45;6.20;;;2.47;;
66633;SDS011;53546;52.184;5.596;2023-02-04T14:46:11;11.75;;;3.33;;
66633;SDS011;53546;52.184;5.596;2023-02-04T14:48:36;8.02;;;2.22;;
66633;SDS011;53546;52.184;5.596;2023-02-04T14:51:02;6.38;;;2.05;;
66633;SDS011;53546;52.184;5.596;2023-02-04T14:53:28;8.10;;;2.38;;
66633;SDS011;53546;52.184;5.596;2023-02-04T14:55:54;6.88;;;2.25;;
66633;SDS011;53546;52.184;5.596;2023-02-04T14:58:19;7.60;;;2.45;;
66633;SDS011;53546;52.184;5.596;2023-02-04T15:00:45;8.00;;;2.58;;
66633;SDS011;53546;52.184;5.596;2023-02-04T15:03:10;9.07;;;2.65;;
66633;SDS011;53546;52.184;5.596;2023-02-04T15:05:36;5.60;;;2.65;;
66633;SDS011;53546;52.184;5.596;2023-02-04T15:08:01;6.90;;;2.58;;